sensor_id;sensor_type;location;lat;lon;timestamp;P1;durP1;ratioP1;P2;durP2;ratioP2
66093;SDS011;52876;49.394;10.892;2022-09-09T00:01:08;2.37;;;2.17;;
66093;SDS011;52876;49.394;10.892;2022-09-09T00:03:43;3.33;;;3.13;;
66093;SDS011;52876;49.394;10.892;2022-09-09T00:06:16;3.50;;;2.77;;
66093;SDS011;52876;49.394;10.892;2022-09-09T00:08:49;3.00;;;2.30;;
66093;SDS011;52876;49.394;10.892;2022-09-09T00:11:26;2.63;;;2.43;;
66093;SDS011;52876;49.394;10.892;2022-09-09T00:13:56;3.33;;;2.00;;
66093;SDS011;52876;49.394;10.892;2022-09-09T00:16:25;2.30;;;2.10;;
66093;SDS011;52876;49.394;10.892;2022-09-09T00:18:57;1.63;;;1.53;;
66093;SDS011;52876;49.394;10.892;2022-09-09T00:21:34;1.90;;;1.80;;
66093;SDS011;52876;49.394;10.892;2022-09-09T00:24:08;4.57;;;2.13;;
66093;SDS011;52876;49.394;10.892;2022-09-09T00:26:38;4.50;;;1.83;;
66093;SDS011;52876;49.394;10.892;2022-09-09T00:29:10;3.37;;;2.10;;
66093;SDS011;52876;49.394;10.892;2022-09-09T00:31:47;2.90;;;2.27;;
66093;SDS011;52876;49.394;10.892;2022-09-09T00:34:14;3.00;;;2.43;;
66093;SDS011;52876;49.394;10.892;2022-09-09T00:36:45;2.37;;;2.17;;
66093;SDS011;52876;49.394;10.892;2022-09-09T00:39:23;4.73;;;3.03;;
66093;SDS011;52876;49.394;10.892;2022-09-09T00:41:57;2.47;;;2.30;;
66093;SDS011;52876;49.394;10.892;2022-09-09T00:44:36;3.17;;;1.90;;
66093;SDS011;52876;49.394;10.892;2022-09-09T00:47:06;2.93;;;2.40;;
66093;SDS011;52876;49.394;10.892;2022-09-09T00:49:44;2.70;;;2.50;;
66093;SDS011;52876;49.394;10.892;2022-09-09T00:52:29;2.80;;;2.60;;
66093;SDS011;52876;49.394;10.892;2022-09-09T00:55:05;3.00;;;2.17;;
66093;SDS011;52876;49.394;10.892;2022-09-09T00:57:39;2.40;;;2.20;;
66093;SDS011;52876;49.394;10.892;2022-09-09T01:00:19;4.00;;;2.10;;
66093;SDS011;52876;49.394;10.892;2022-09-09T01:03:02;4.67;;;2.73;;
66093;SDS011;52876;49.394;10.892;2022-09-09T01:05:40;3.67;;;2.23;;
66093;SDS011;52876;49.394;10.892;2022-09-09T01:08:17;3.93;;;2.47;;
66093;SDS011;52876;49.394;10.892;2022-09-09T01:10:58;4.87;;;3.40;;
66093;SDS011;52876;49.394;10.892;2022-09-09T01:13:27;2.47;;;2.27;;
66093;SDS011;52876;49.394;10.892;2022-09-09T01:15:56;5.47;;;4.00;;
66093;SDS011;52876;49.394;10.892;2022-09-09T01:18:25;5.80;;;2.70;;
66093;SDS011;52876;49.394;10.892;2022-09-09T01:20:55;4.17;;;3.77;;
66093;SDS011;52876;49.394;10.892;2022-09-09T01:23:42;2.83;;;2.60;;
66093;SDS011;52876;49.394;10.892;2022-09-09T01:26:28;2.77;;;2.47;;
66093;SDS011;52876;49.394;10.892;2022-09-09T01:28:59;2.30;;;1.90;;
66093;SDS011;52876;49.394;10.892;2022-09-09T01:31:30;2.10;;;2.00;;
66093;SDS011;52876;49.394;10.892;2022-09-09T01:34:00;4.07;;;2.83;;
66093;SDS011;52876;49.394;10.892;2022-09-09T01:36:29;5.23;;;2.63;;
66093;SDS011;52876;49.394;10.892;2022-09-09T01:39:00;2.23;;;2.10;;
66093;SDS011;52876;49.394;10.892;2022-09-09T01:41:41;2.27;;;2.17;;
66093;SDS011;52876;49.394;10.892;2022-09-09T01:44:07;3.63;;;3.33;;
66093;SDS011;52876;49.394;10.892;2022-09-09T01:46:33;4.13;;;2.30;;
66093;SDS011;52876;49.394;10.892;2022-09-09T01:49:00;2.00;;;1.90;;
66093;SDS011;52876;49.394;10.892;2022-09-09T01:51:30;4.00;;;2.00;;
66093;SDS011;52876;49.394;10.892;2022-09-09T01:54:00;2.47;;;2.27;;
66093;SDS011;52876;49.394;10.892;2022-09-09T01:56:35;4.03;;;2.00;;
66093;SDS011;52876;49.394;10.892;2022-09-09T01:59:22;2.70;;;2.27;;
66093;SDS011;52876;49.394;10.892;2022-09-09T02:02:07;2.73;;;2.43;;
66093;SDS011;52876;49.394;10.892;2022-09-09T02:04:37;3.73;;;2.13;;
66093;SDS011;52876;49.394;10.892;2022-09-09T02:07:06;2.70;;;2.50;;
66093;SDS011;52876;49.394;10.892;2022-09-09T02:09:44;2.40;;;2.20;;
66093;SDS011;52876;49.394;10.892;2022-09-09T02:12:18;3.10;;;2.80;;
66093;SDS011;52876;49.394;10.892;2022-09-09T02:14:48;2.90;;;2.33;;
66093;SDS011;52876;49.394;10.892;2022-09-09T02:17:21;2.53;;;2.33;;
66093;SDS011;52876;49.394;10.892;2022-09-09T02:19:54;2.80;;;1.93;;
66093;SDS011;52876;49.394;10.892;2022-09-09T02:22:28;2.50;;;2.30;;
66093;SDS011;52876;49.394;10.892;2022-09-09T02:24:59;2.43;;;2.23;;
66093;SDS011;52876;49.394;10.892;2022-09-09T02:27:30;3.00;;;2.30;;
66093;SDS011;52876;49.394;10.892;2022-09-09T02:29:56;3.93;;;2.10;;
66093;SDS011;52876;49.394;10.892;2022-09-09T02:32:29;2.40;;;2.20;;
66093;SDS011;52876;49.394;10.892;2022-09-09T02:35:00;2.80;;;2.00;;
66093;SDS011;52876;49.394;10.892;2022-09-09T02:37:33;2.00;;;1.80;;
66093;SDS011;52876;49.394;10.892;2022-09-09T02:40:03;3.63;;;2.07;;
66093;SDS011;52876;49.394;10.892;2022-09-09T02:42:39;2.67;;;2.47;;
66093;SDS011;52876;49.394;10.892;2022-09-09T02:45:07;2.43;;;2.23;;
66093;SDS011;52876;49.394;10.892;2022-09-09T02:47:37;3.80;;;1.80;;
66093;SDS011;52876;49.394;10.892;2022-09-09T02:50:12;2.80;;;2.60;;
66093;SDS011;52876;49.394;10.892;2022-09-09T02:52:45;2.17;;;2.07;;
66093;SDS011;52876;49.394;10.892;2022-09-09T02:55:21;2.67;;;2.33;;
66093;SDS011;52876;49.394;10.892;2022-09-09T02:57:54;2.50;;;2.30;;
66093;SDS011;52876;49.394;10.892;2022-09-09T03:00:24;2.63;;;1.90;;
66093;SDS011;52876;49.394;10.892;2022-09-09T03:02:54;2.77;;;2.57;;
66093;SDS011;52876;49.394;10.892;2022-09-09T03:05:20;2.73;;;2.43;;
66093;SDS011;52876;49.394;10.892;2022-09-09T03:07:48;2.80;;;2.30;;
66093;SDS011;52876;49.394;10.892;2022-09-09T03:10:16;2.90;;;2.70;;
66093;SDS011;52876;49.394;10.892;2022-09-09T03:12:44;2.77;;;2.40;;
66093;SDS011;52876;49.394;10.892;2022-09-09T03:15:12;2.83;;;2.63;;
66093;SDS011;52876;49.394;10.892;2022-09-09T03:17:40;2.40;;;2.20;;
66093;SDS011;52876;49.394;10.892;2022-09-09T03:20:07;5.73;;;1.97;;
66093;SDS011;52876;49.394;10.892;2022-09-09T03:22:41;2.80;;;2.10;;
66093;SDS011;52876;49.394;10.892;2022-09-09T03:25:08;3.00;;;2.70;;
66093;SDS011;52876;49.394;10.892;2022-09-09T03:27:36;1.87;;;1.77;;
66093;SDS011;52876;49.394;10.892;2022-09-09T03:30:04;2.27;;;1.80;;
66093;SDS011;52876;49.394;10.892;2022-09-09T03:32:33;2.53;;;1.70;;
66093;SDS011;52876;49.394;10.892;2022-09-09T03:34:59;2.80;;;2.20;;
66093;SDS011;52876;49.394;10.892;2022-09-09T03:37:32;2.80;;;2.10;;
66093;SDS011;52876;49.394;10.892;2022-09-09T03:39:58;7.63;;;3.80;;
66093;SDS011;52876;49.394;10.892;2022-09-09T03:42:25;3.70;;;2.83;;
66093;SDS011;52876;49.394;10.892;2022-09-09T03:44:52;5.43;;;3.80;;
66093;SDS011;52876;49.394;10.892;2022-09-09T03:47:18;2.97;;;2.57;;
66093;SDS011;52876;49.394;10.892;2022-09-09T03:49:47;2.70;;;2.50;;
66093;SDS011;52876;49.394;10.892;2022-09-09T03:52:15;5.20;;;2.80;;
66093;SDS011;52876;49.394;10.892;2022-09-09T03:54:42;3.10;;;2.77;;
66093;SDS011;52876;49.394;10.892;2022-09-09T03:57:10;4.30;;;2.80;;
66093;SDS011;52876;49.394;10.892;2022-09-09T03:59:36;2.70;;;2.13;;
66093;SDS011;52876;49.394;10.892;2022-09-09T04:02:05;3.20;;;2.10;;
66093;SDS011;52876;49.394;10.892;2022-09-09T04:04:31;2.40;;;2.20;;
66093;SDS011;52876;49.394;10.892;2022-09-09T04:07:02;3.10;;;2.80;;
66093;SDS011;52876;49.394;10.892;2022-09-09T04:09:28;2.60;;;2.40;;
66093;SDS011;52876;49.394;10.892;2022-09-09T04:12:04;3.20;;;2.97;;
66093;SDS011;52876;49.394;10.892;2022-09-09T04:14:31;2.57;;;2.37;;
66093;SDS011;52876;49.394;10.892;2022-09-09T04:16:58;2.33;;;2.20;;
66093;SDS011;52876;49.394;10.892;2022-09-09T04:19:25;2.43;;;2.20;;
66093;SDS011;52876;49.394;10.892;2022-09-09T04:21:51;6.60;;;5.23;;
66093;SDS011;52876;49.394;10.892;2022-09-09T04:24:19;11.90;;;5.77;;
66093;SDS011;52876;49.394;10.892;2022-09-09T04:26:45;6.77;;;4.83;;
66093;SDS011;52876;49.394;10.892;2022-09-09T04:29:12;4.57;;;4.13;;
66093;SDS011;52876;49.394;10.892;2022-09-09T04:31:39;3.80;;;2.70;;
66093;SDS011;52876;49.394;10.892;2022-09-09T04:34:06;4.43;;;2.47;;
66093;SDS011;52876;49.394;10.892;2022-09-09T04:36:33;4.00;;;3.10;;
66093;SDS011;52876;49.394;10.892;2022-09-09T04:38:59;4.03;;;3.40;;
66093;SDS011;52876;49.394;10.892;2022-09-09T04:41:27;2.90;;;2.00;;
66093;SDS011;52876;49.394;10.892;2022-09-09T04:43:53;2.87;;;2.67;;
66093;SDS011;52876;49.394;10.892;2022-09-09T04:46:21;3.83;;;2.20;;
66093;SDS011;52876;49.394;10.892;2022-09-09T04:48:48;5.67;;;3.20;;
66093;SDS011;52876;49.394;10.892;2022-09-09T04:51:15;3.40;;;3.10;;
66093;SDS011;52876;49.394;10.892;2022-09-09T04:53:40;3.27;;;2.40;;
66093;SDS011;52876;49.394;10.892;2022-09-09T04:56:09;4.17;;;2.60;;
66093;SDS011;52876;49.394;10.892;2022-09-09T04:58:37;2.60;;;2.40;;
66093;SDS011;52876;49.394;10.892;2022-09-09T05:01:06;2.80;;;2.40;;
66093;SDS011;52876;49.394;10.892;2022-09-09T05:03:34;5.47;;;4.20;;
66093;SDS011;52876;49.394;10.892;2022-09-09T05:06:02;7.03;;;3.70;;
66093;SDS011;52876;49.394;10.892;2022-09-09T05:08:29;5.17;;;3.47;;
66093;SDS011;52876;49.394;10.892;2022-09-09T05:10:58;8.77;;;5.43;;
66093;SDS011;52876;49.394;10.892;2022-09-09T05:13:27;4.27;;;3.80;;
66093;SDS011;52876;49.394;10.892;2022-09-09T05:15:57;9.83;;;5.87;;
66093;SDS011;52876;49.394;10.892;2022-09-09T05:18:24;5.40;;;3.63;;
66093;SDS011;52876;49.394;10.892;2022-09-09T05:20:51;8.30;;;5.83;;
66093;SDS011;52876;49.394;10.892;2022-09-09T05:23:17;6.70;;;5.60;;
66093;SDS011;52876;49.394;10.892;2022-09-09T05:25:53;4.80;;;3.37;;
66093;SDS011;52876;49.394;10.892;2022-09-09T05:28:20;8.60;;;3.93;;
66093;SDS011;52876;49.394;10.892;2022-09-09T05:30:51;3.43;;;3.10;;
66093;SDS011;52876;49.394;10.892;2022-09-09T05:33:22;4.33;;;2.60;;
66093;SDS011;52876;49.394;10.892;2022-09-09T05:35:54;2.77;;;2.37;;
66093;SDS011;52876;49.394;10.892;2022-09-09T05:38:21;2.77;;;2.60;;
66093;SDS011;52876;49.394;10.892;2022-09-09T05:40:47;3.60;;;3.20;;
66093;SDS011;52876;49.394;10.892;2022-09-09T05:43:14;4.50;;;3.80;;
66093;SDS011;52876;49.394;10.892;2022-09-09T05:45:40;2.90;;;2.53;;
66093;SDS011;52876;49.394;10.892;2022-09-09T05:48:09;3.47;;;2.80;;
66093;SDS011;52876;49.394;10.892;2022-09-09T05:50:36;2.80;;;2.40;;
66093;SDS011;52876;49.394;10.892;2022-09-09T05:53:03;4.67;;;2.90;;
66093;SDS011;52876;49.394;10.892;2022-09-09T05:55:29;3.60;;;2.17;;
66093;SDS011;52876;49.394;10.892;2022-09-09T05:57:55;3.83;;;3.43;;
66093;SDS011;52876;49.394;10.892;2022-09-09T06:00:22;2.53;;;2.23;;
66093;SDS011;52876;49.394;10.892;2022-09-09T06:02:58;4.23;;;3.80;;
66093;SDS011;52876;49.394;10.892;2022-09-09T06:05:26;4.30;;;2.30;;
66093;SDS011;52876;49.394;10.892;2022-09-09T06:07:53;3.00;;;2.80;;
66093;SDS011;52876;49.394;10.892;2022-09-09T06:10:21;5.37;;;2.60;;
66093;SDS011;52876;49.394;10.892;2022-09-09T06:12:58;3.70;;;2.30;;
66093;SDS011;52876;49.394;10.892;2022-09-09T06:15:25;2.83;;;2.60;;
66093;SDS011;52876;49.394;10.892;2022-09-09T06:17:53;3.67;;;2.27;;
66093;SDS011;52876;49.394;10.892;2022-09-09T06:20:20;3.87;;;3.27;;
66093;SDS011;52876;49.394;10.892;2022-09-09T06:22:53;4.17;;;3.10;;
66093;SDS011;52876;49.394;10.892;2022-09-09T06:25:20;2.40;;;2.20;;
66093;SDS011;52876;49.394;10.892;2022-09-09T06:27:48;4.57;;;4.17;;
66093;SDS011;52876;49.394;10.892;2022-09-09T06:30:15;3.23;;;2.93;;
66093;SDS011;52876;49.394;10.892;2022-09-09T06:32:49;2.70;;;2.23;;
66093;SDS011;52876;49.394;10.892;2022-09-09T06:35:15;4.43;;;4.00;;
66093;SDS011;52876;49.394;10.892;2022-09-09T06:37:49;4.10;;;2.90;;
66093;SDS011;52876;49.394;10.892;2022-09-09T06:40:17;4.63;;;3.80;;
66093;SDS011;52876;49.394;10.892;2022-09-09T06:42:48;5.30;;;3.37;;
66093;SDS011;52876;49.394;10.892;2022-09-09T06:45:14;5.33;;;4.37;;
66093;SDS011;52876;49.394;10.892;2022-09-09T06:47:49;2.57;;;2.37;;
66093;SDS011;52876;49.394;10.892;2022-09-09T06:50:15;3.40;;;3.10;;
66093;SDS011;52876;49.394;10.892;2022-09-09T06:52:45;2.90;;;2.33;;
66093;SDS011;52876;49.394;10.892;2022-09-09T06:55:12;3.10;;;2.57;;
66093;SDS011;52876;49.394;10.892;2022-09-09T06:57:41;2.27;;;1.90;;
66093;SDS011;52876;49.394;10.892;2022-09-09T07:00:08;5.77;;;4.43;;
66093;SDS011;52876;49.394;10.892;2022-09-09T07:02:41;2.57;;;1.80;;
66093;SDS011;52876;49.394;10.892;2022-09-09T07:05:08;2.57;;;1.90;;
66093;SDS011;52876;49.394;10.892;2022-09-09T07:07:39;3.50;;;1.70;;
66093;SDS011;52876;49.394;10.892;2022-09-09T07:10:06;2.60;;;2.40;;
66093;SDS011;52876;49.394;10.892;2022-09-09T07:12:40;2.90;;;2.10;;
66093;SDS011;52876;49.394;10.892;2022-09-09T07:15:06;2.47;;;2.00;;
66093;SDS011;52876;49.394;10.892;2022-09-09T07:17:39;3.37;;;2.03;;
66093;SDS011;52876;49.394;10.892;2022-09-09T07:20:06;2.50;;;2.30;;
66093;SDS011;52876;49.394;10.892;2022-09-09T07:22:38;4.50;;;2.37;;
66093;SDS011;52876;49.394;10.892;2022-09-09T07:25:05;4.03;;;2.40;;
66093;SDS011;52876;49.394;10.892;2022-09-09T07:27:33;2.80;;;2.33;;
66093;SDS011;52876;49.394;10.892;2022-09-09T07:30:01;5.30;;;3.20;;
66093;SDS011;52876;49.394;10.892;2022-09-09T07:32:31;5.17;;;2.40;;
66093;SDS011;52876;49.394;10.892;2022-09-09T07:34:58;7.13;;;4.00;;
66093;SDS011;52876;49.394;10.892;2022-09-09T07:37:24;2.57;;;2.37;;
66093;SDS011;52876;49.394;10.892;2022-09-09T07:39:50;2.90;;;2.70;;
66093;SDS011;52876;49.394;10.892;2022-09-09T07:42:17;3.63;;;3.30;;
66093;SDS011;52876;49.394;10.892;2022-09-09T07:44:43;4.60;;;1.70;;
66093;SDS011;52876;49.394;10.892;2022-09-09T07:47:11;4.40;;;2.50;;
66093;SDS011;52876;49.394;10.892;2022-09-09T07:49:37;2.00;;;1.43;;
66093;SDS011;52876;49.394;10.892;2022-09-09T07:52:06;1.27;;;1.17;;
66093;SDS011;52876;49.394;10.892;2022-09-09T07:54:32;1.70;;;1.40;;
66093;SDS011;52876;49.394;10.892;2022-09-09T07:56:59;2.70;;;1.30;;
66093;SDS011;52876;49.394;10.892;2022-09-09T07:59:25;3.07;;;1.20;;
66093;SDS011;52876;49.394;10.892;2022-09-09T08:01:52;2.63;;;1.40;;
66093;SDS011;52876;49.394;10.892;2022-09-09T08:04:21;2.53;;;1.30;;
66093;SDS011;52876;49.394;10.892;2022-09-09T08:06:50;1.20;;;1.10;;
66093;SDS011;52876;49.394;10.892;2022-09-09T08:09:18;1.17;;;1.03;;
66093;SDS011;52876;49.394;10.892;2022-09-09T08:11:46;1.57;;;1.27;;
66093;SDS011;52876;49.394;10.892;2022-09-09T08:14:13;1.40;;;1.00;;
66093;SDS011;52876;49.394;10.892;2022-09-09T08:16:42;1.57;;;1.20;;
66093;SDS011;52876;49.394;10.892;2022-09-09T08:19:09;2.03;;;1.20;;
66093;SDS011;52876;49.394;10.892;2022-09-09T08:21:38;2.07;;;1.00;;
66093;SDS011;52876;49.394;10.892;2022-09-09T08:24:06;1.70;;;1.00;;
66093;SDS011;52876;49.394;10.892;2022-09-09T08:26:44;3.67;;;1.40;;
66093;SDS011;52876;49.394;10.892;2022-09-09T08:29:12;2.53;;;2.33;;
66093;SDS011;52876;49.394;10.892;2022-09-09T08:31:42;1.37;;;1.27;;
66093;SDS011;52876;49.394;10.892;2022-09-09T08:34:10;3.63;;;1.73;;
66093;SDS011;52876;49.394;10.892;2022-09-09T08:36:39;2.00;;;1.53;;
66093;SDS011;52876;49.394;10.892;2022-09-09T08:39:07;2.47;;;2.03;;
66093;SDS011;52876;49.394;10.892;2022-09-09T08:41:38;1.50;;;1.20;;
66093;SDS011;52876;49.394;10.892;2022-09-09T08:44:13;3.07;;;2.17;;
66093;SDS011;52876;49.394;10.892;2022-09-09T08:46:50;2.03;;;1.77;;
66093;SDS011;52876;49.394;10.892;2022-09-09T08:49:34;1.70;;;1.20;;
66093;SDS011;52876;49.394;10.892;2022-09-09T08:52:15;3.27;;;1.77;;
66093;SDS011;52876;49.394;10.892;2022-09-09T08:54:47;1.60;;;1.10;;
66093;SDS011;52876;49.394;10.892;2022-09-09T08:57:16;1.10;;;1.00;;
66093;SDS011;52876;49.394;10.892;2022-09-09T09:02:32;2.87;;;1.30;;
66093;SDS011;52876;49.394;10.892;2022-09-09T09:05:11;2.87;;;1.27;;
66093;SDS011;52876;49.394;10.892;2022-09-09T09:07:52;2.03;;;1.00;;
66093;SDS011;52876;49.394;10.892;2022-09-09T09:10:29;3.10;;;1.30;;
66093;SDS011;52876;49.394;10.892;2022-09-09T09:13:07;4.10;;;3.33;;
66093;SDS011;52876;49.394;10.892;2022-09-09T09:15:38;3.03;;;1.73;;
66093;SDS011;52876;49.394;10.892;2022-09-09T09:18:07;2.83;;;2.60;;
66093;SDS011;52876;49.394;10.892;2022-09-09T09:20:41;1.63;;;1.50;;
66093;SDS011;52876;49.394;10.892;2022-09-09T09:23:20;1.73;;;1.53;;
66093;SDS011;52876;49.394;10.892;2022-09-09T09:25:49;3.13;;;1.50;;
66093;SDS011;52876;49.394;10.892;2022-09-09T09:28:22;1.77;;;1.50;;
66093;SDS011;52876;49.394;10.892;2022-09-09T09:30:55;1.73;;;1.43;;
66093;SDS011;52876;49.394;10.892;2022-09-09T09:33:26;1.90;;;1.73;;
66093;SDS011;52876;49.394;10.892;2022-09-09T09:35:58;2.37;;;1.97;;
66093;SDS011;52876;49.394;10.892;2022-09-09T09:38:26;1.70;;;1.20;;
66093;SDS011;52876;49.394;10.892;2022-09-09T09:40:55;1.67;;;1.57;;
66093;SDS011;52876;49.394;10.892;2022-09-09T09:43:24;1.87;;;1.13;;
66093;SDS011;52876;49.394;10.892;2022-09-09T09:45:54;1.40;;;1.30;;
66093;SDS011;52876;49.394;10.892;2022-09-09T09:48:20;1.73;;;1.63;;
66093;SDS011;52876;49.394;10.892;2022-09-09T09:50:48;2.10;;;1.70;;
66093;SDS011;52876;49.394;10.892;2022-09-09T09:53:17;2.53;;;2.30;;
66093;SDS011;52876;49.394;10.892;2022-09-09T09:55:48;2.03;;;1.53;;
66093;SDS011;52876;49.394;10.892;2022-09-09T09:58:19;3.20;;;1.73;;
66093;SDS011;52876;49.394;10.892;2022-09-09T10:00:51;3.00;;;2.07;;
66093;SDS011;52876;49.394;10.892;2022-09-09T10:03:21;2.83;;;2.60;;
66093;SDS011;52876;49.394;10.892;2022-09-09T10:05:51;1.60;;;1.47;;
66093;SDS011;52876;49.394;10.892;2022-09-09T10:08:18;4.80;;;3.73;;
66093;SDS011;52876;49.394;10.892;2022-09-09T10:10:49;3.73;;;3.03;;
66093;SDS011;52876;49.394;10.892;2022-09-09T10:13:24;2.30;;;2.10;;
66093;SDS011;52876;49.394;10.892;2022-09-09T10:15:59;2.13;;;1.63;;
66093;SDS011;52876;49.394;10.892;2022-09-09T10:18:45;2.50;;;1.47;;
66093;SDS011;52876;49.394;10.892;2022-09-09T10:24:21;2.27;;;1.50;;
66093;SDS011;52876;49.394;10.892;2022-09-09T10:27:10;2.80;;;1.50;;
66093;SDS011;52876;49.394;10.892;2022-09-09T10:29:46;3.00;;;1.50;;
66093;SDS011;52876;49.394;10.892;2022-09-09T10:32:30;2.73;;;2.40;;
66093;SDS011;52876;49.394;10.892;2022-09-09T10:35:03;2.17;;;1.73;;
66093;SDS011;52876;49.394;10.892;2022-09-09T10:37:46;2.90;;;1.33;;
66093;SDS011;52876;49.394;10.892;2022-09-09T10:40:31;2.20;;;1.40;;
66093;SDS011;52876;49.394;10.892;2022-09-09T10:43:03;2.97;;;2.10;;
66093;SDS011;52876;49.394;10.892;2022-09-09T10:45:40;6.30;;;1.50;;
66093;SDS011;52876;49.394;10.892;2022-09-09T10:48:17;3.30;;;2.30;;
66093;SDS011;52876;49.394;10.892;2022-09-09T10:51:01;4.87;;;1.27;;
66093;SDS011;52876;49.394;10.892;2022-09-09T10:53:41;1.90;;;1.40;;
66093;SDS011;52876;49.394;10.892;2022-09-09T10:56:19;2.40;;;1.80;;
66093;SDS011;52876;49.394;10.892;2022-09-09T10:58:49;2.40;;;1.40;;
66093;SDS011;52876;49.394;10.892;2022-09-09T11:01:20;2.90;;;2.17;;
66093;SDS011;52876;49.394;10.892;2022-09-09T11:03:52;1.80;;;1.50;;
66093;SDS011;52876;49.394;10.892;2022-09-09T11:06:23;1.80;;;1.30;;
66093;SDS011;52876;49.394;10.892;2022-09-09T11:08:54;1.97;;;1.47;;
66093;SDS011;52876;49.394;10.892;2022-09-09T11:11:25;4.20;;;1.23;;
66093;SDS011;52876;49.394;10.892;2022-09-09T11:13:57;1.83;;;1.40;;
66093;SDS011;52876;49.394;10.892;2022-09-09T11:16:36;2.00;;;1.20;;
66093;SDS011;52876;49.394;10.892;2022-09-09T11:19:10;2.80;;;1.57;;
66093;SDS011;52876;49.394;10.892;2022-09-09T11:21:44;1.70;;;1.50;;
66093;SDS011;52876;49.394;10.892;2022-09-09T11:24:13;1.87;;;1.20;;
66093;SDS011;52876;49.394;10.892;2022-09-09T11:26:45;1.83;;;1.10;;
66093;SDS011;52876;49.394;10.892;2022-09-09T11:29:24;1.83;;;1.10;;
66093;SDS011;52876;49.394;10.892;2022-09-09T11:32:20;2.40;;;1.00;;
66093;SDS011;52876;49.394;10.892;2022-09-09T11:35:01;1.40;;;1.20;;
66093;SDS011;52876;49.394;10.892;2022-09-09T11:37:51;1.50;;;1.00;;
66093;SDS011;52876;49.394;10.892;2022-09-09T11:40:37;1.10;;;0.90;;
66093;SDS011;52876;49.394;10.892;2022-09-09T11:43:04;2.70;;;1.10;;
66093;SDS011;52876;49.394;10.892;2022-09-09T11:45:36;1.20;;;1.00;;
66093;SDS011;52876;49.394;10.892;2022-09-09T11:48:03;2.53;;;1.07;;
66093;SDS011;52876;49.394;10.892;2022-09-09T11:50:31;1.53;;;1.40;;
66093;SDS011;52876;49.394;10.892;2022-09-09T11:56:06;1.70;;;1.10;;
66093;SDS011;52876;49.394;10.892;2022-09-09T11:58:42;1.47;;;1.33;;
66093;SDS011;52876;49.394;10.892;2022-09-09T12:01:28;2.63;;;1.60;;
66093;SDS011;52876;49.394;10.892;2022-09-09T12:04:06;2.80;;;2.27;;
66093;SDS011;52876;49.394;10.892;2022-09-09T12:06:44;1.53;;;1.40;;
66093;SDS011;52876;49.394;10.892;2022-09-09T12:09:25;1.63;;;1.50;;
66093;SDS011;52876;49.394;10.892;2022-09-09T12:12:25;3.00;;;2.50;;
66093;SDS011;52876;49.394;10.892;2022-09-09T12:15:00;8.90;;;4.00;;
66093;SDS011;52876;49.394;10.892;2022-09-09T12:17:30;7.37;;;4.80;;
66093;SDS011;52876;49.394;10.892;2022-09-09T12:20:00;5.80;;;4.73;;
66093;SDS011;52876;49.394;10.892;2022-09-09T12:22:38;1.90;;;1.80;;
66093;SDS011;52876;49.394;10.892;2022-09-09T12:25:16;4.40;;;4.07;;
66093;SDS011;52876;49.394;10.892;2022-09-09T12:27:52;1.43;;;1.30;;
66093;SDS011;52876;49.394;10.892;2022-09-09T12:30:35;3.67;;;3.30;;
66093;SDS011;52876;49.394;10.892;2022-09-09T12:33:10;4.90;;;3.43;;
66093;SDS011;52876;49.394;10.892;2022-09-09T12:35:37;2.47;;;1.80;;
66093;SDS011;52876;49.394;10.892;2022-09-09T12:38:03;3.70;;;3.30;;
66093;SDS011;52876;49.394;10.892;2022-09-09T12:40:32;2.00;;;1.63;;
66093;SDS011;52876;49.394;10.892;2022-09-09T12:42:59;2.30;;;2.00;;
66093;SDS011;52876;49.394;10.892;2022-09-09T12:45:26;6.67;;;4.60;;
66093;SDS011;52876;49.394;10.892;2022-09-09T12:47:55;9.23;;;4.70;;
66093;SDS011;52876;49.394;10.892;2022-09-09T12:50:27;17.53;;;9.03;;
66093;SDS011;52876;49.394;10.892;2022-09-09T12:52:56;18.93;;;8.57;;
66093;SDS011;52876;49.394;10.892;2022-09-09T12:55:24;16.67;;;7.97;;
66093;SDS011;52876;49.394;10.892;2022-09-09T12:57:51;11.20;;;7.57;;
66093;SDS011;52876;49.394;10.892;2022-09-09T13:00:20;13.13;;;6.90;;
66093;SDS011;52876;49.394;10.892;2022-09-09T13:02:50;5.10;;;3.63;;
66093;SDS011;52876;49.394;10.892;2022-09-09T13:05:20;5.60;;;4.23;;
66093;SDS011;52876;49.394;10.892;2022-09-09T13:07:49;2.83;;;1.20;;
66093;SDS011;52876;49.394;10.892;2022-09-09T13:10:21;2.47;;;2.03;;
66093;SDS011;52876;49.394;10.892;2022-09-09T13:12:54;3.43;;;2.20;;
66093;SDS011;52876;49.394;10.892;2022-09-09T13:15:21;2.90;;;2.60;;
66093;SDS011;52876;49.394;10.892;2022-09-09T13:17:49;1.40;;;1.30;;
66093;SDS011;52876;49.394;10.892;2022-09-09T13:20:22;2.13;;;1.67;;
66093;SDS011;52876;49.394;10.892;2022-09-09T13:23:00;4.97;;;3.00;;
66093;SDS011;52876;49.394;10.892;2022-09-09T13:25:26;2.17;;;1.43;;
66093;SDS011;52876;49.394;10.892;2022-09-09T13:27:55;5.20;;;1.90;;
66093;SDS011;52876;49.394;10.892;2022-09-09T13:30:24;1.40;;;1.00;;
66093;SDS011;52876;49.394;10.892;2022-09-09T13:33:03;2.07;;;1.50;;
66093;SDS011;52876;49.394;10.892;2022-09-09T13:35:31;3.00;;;1.40;;
66093;SDS011;52876;49.394;10.892;2022-09-09T13:37:57;3.30;;;3.10;;
66093;SDS011;52876;49.394;10.892;2022-09-09T13:40:26;3.70;;;1.40;;
66093;SDS011;52876;49.394;10.892;2022-09-09T13:42:53;2.87;;;1.13;;
66093;SDS011;52876;49.394;10.892;2022-09-09T13:45:25;3.27;;;2.37;;
66093;SDS011;52876;49.394;10.892;2022-09-09T13:47:51;1.50;;;1.40;;
66093;SDS011;52876;49.394;10.892;2022-09-09T13:50:25;1.87;;;1.30;;
66093;SDS011;52876;49.394;10.892;2022-09-09T13:52:53;2.10;;;1.50;;
66093;SDS011;52876;49.394;10.892;2022-09-09T13:55:22;2.37;;;1.50;;
66093;SDS011;52876;49.394;10.892;2022-09-09T13:57:51;3.50;;;1.20;;
66093;SDS011;52876;49.394;10.892;2022-09-09T14:00:18;2.70;;;1.60;;
66093;SDS011;52876;49.394;10.892;2022-09-09T14:02:49;1.70;;;1.60;;
66093;SDS011;52876;49.394;10.892;2022-09-09T14:05:16;5.60;;;1.87;;
66093;SDS011;52876;49.394;10.892;2022-09-09T14:07:45;2.80;;;1.50;;
66093;SDS011;52876;49.394;10.892;2022-09-09T14:10:13;7.67;;;1.83;;
66093;SDS011;52876;49.394;10.892;2022-09-09T14:12:41;6.03;;;2.10;;
66093;SDS011;52876;49.394;10.892;2022-09-09T14:15:11;2.30;;;1.40;;
66093;SDS011;52876;49.394;10.892;2022-09-09T14:17:39;1.40;;;1.30;;
66093;SDS011;52876;49.394;10.892;2022-09-09T14:20:06;1.30;;;1.20;;
66093;SDS011;52876;49.394;10.892;2022-09-09T14:22:45;2.10;;;1.50;;
66093;SDS011;52876;49.394;10.892;2022-09-09T14:25:11;5.27;;;1.33;;
66093;SDS011;52876;49.394;10.892;2022-09-09T14:27:42;3.67;;;1.20;;
66093;SDS011;52876;49.394;10.892;2022-09-09T14:30:11;1.77;;;1.53;;
66093;SDS011;52876;49.394;10.892;2022-09-09T14:32:43;2.10;;;1.40;;
66093;SDS011;52876;49.394;10.892;2022-09-09T14:35:09;2.90;;;1.30;;
66093;SDS011;52876;49.394;10.892;2022-09-09T14:37:37;3.30;;;2.07;;
66093;SDS011;52876;49.394;10.892;2022-09-09T14:40:03;4.90;;;2.23;;
66093;SDS011;52876;49.394;10.892;2022-09-09T14:42:33;3.10;;;1.43;;
66093;SDS011;52876;49.394;10.892;2022-09-09T14:44:59;2.43;;;1.60;;
66093;SDS011;52876;49.394;10.892;2022-09-09T14:47:32;3.60;;;1.27;;
66093;SDS011;52876;49.394;10.892;2022-09-09T14:49:58;3.83;;;1.50;;
66093;SDS011;52876;49.394;10.892;2022-09-09T14:52:25;2.60;;;1.30;;
66093;SDS011;52876;49.394;10.892;2022-09-09T14:54:51;1.50;;;1.37;;
66093;SDS011;52876;49.394;10.892;2022-09-09T14:57:18;4.00;;;1.27;;
66093;SDS011;52876;49.394;10.892;2022-09-09T14:59:45;2.00;;;0.97;;
66093;SDS011;52876;49.394;10.892;2022-09-09T15:02:13;1.37;;;0.90;;
66093;SDS011;52876;49.394;10.892;2022-09-09T15:04:43;1.43;;;1.00;;